Terminal Aerodrome Forecast
Issued by NWS Caribou, ME

Home | Current Version | Previous Version | Text Only | Print | Product List | Glossary On
Versions: 1 2 3 4 5 6 7 8 9 10 11 12 13 14 15 16 17 18 19 20 21
701
FTUS41 KCAR 041741
TAFBGR
TAF
KBGR 041741Z 0418/0518 05007KT P6SM BKN035
     FM042200 09005KT P6SM BKN030
     FM050000 09005KT P6SM -RA OVC025
     FM050200 09005KT 6SM -RA OVC018
     FM050500 07005KT 5SM -RA OVC008
     FM051000 04010KT P6SM OVC008
     FM051500 03010KT P6SM OVC015=

USA.gov is the U.S. government's official web portal to all federal, state and local government web resources and services.